createdAt,value
2023-02-26T00:04:39.781Z,0.00
2023-02-26T00:09:42.130Z,0.00
2023-02-26T00:14:44.745Z,0.00
2023-02-26T00:19:47.335Z,0.00
2023-02-26T00:24:49.682Z,0.00
2023-02-26T00:29:52.505Z,0.00
2023-02-26T00:34:55.229Z,0.00
2023-02-26T00:40:23.197Z,-0.10
2023-02-26T00:45:25.961Z,-0.20
2023-02-26T00:50:29.391Z,-0.20
2023-02-26T00:55:31.980Z,-0.20
2023-02-26T01:00:34.548Z,-0.30
2023-02-26T01:05:38.789Z,-0.30
2023-02-26T01:10:41.588Z,-0.30
2023-02-26T01:15:50.302Z,-0.30
2023-02-26T01:21:04.761Z,-0.10
2023-02-26T01:26:21.920Z,0.00
2023-02-26T01:31:34.185Z,0.00
2023-02-26T01:36:47.932Z,0.00
2023-02-26T01:41:58.708Z,-0.10
2023-02-26T01:47:15.316Z,-0.10
2023-02-26T01:52:53.492Z,-0.30
2023-02-26T01:57:58.949Z,-0.30
2023-02-26T02:03:02.188Z,-0.40
2023-02-26T02:08:06.132Z,-0.50
2023-02-26T02:13:33.100Z,-0.50
2023-02-26T02:19:00.732Z,-0.40
2023-02-26T02:24:20.854Z,-0.30
2023-02-26T02:29:48.400Z,-0.30
2023-02-26T02:35:17.957Z,-0.40
2023-02-26T02:40:31.456Z,-0.30
2023-02-26T02:45:49.286Z,-0.30
2023-02-26T02:50:59.344Z,-0.40
2023-02-26T02:56:21.565Z,-0.40
2023-02-26T03:01:27.612Z,-0.50
2023-02-26T03:06:30.171Z,-0.50
2023-02-26T03:11:33.042Z,-0.60
2023-02-26T03:16:44.390Z,-0.60
2023-02-26T03:22:01.855Z,-0.70
2023-02-26T03:27:52.777Z,-0.70
2023-02-26T03:33:19.585Z,-0.70
2023-02-26T03:38:42.077Z,-0.70
2023-02-26T03:44:06.210Z,-0.80
2023-02-26T03:49:14.455Z,-0.80
2023-02-26T03:54:30.213Z,-0.80
2023-02-26T03:59:52.789Z,-0.80
2023-02-26T04:05:28.777Z,-0.90
2023-02-26T04:10:47.967Z,-0.90
2023-02-26T04:15:51.223Z,-0.90
2023-02-26T04:20:53.844Z,-0.90
2023-02-26T04:25:56.347Z,-0.90
2023-02-26T04:30:59.802Z,-0.90
2023-02-26T04:36:02.572Z,-0.80
2023-02-26T04:41:05.489Z,-0.90
2023-02-26T04:46:08.120Z,-0.90
2023-02-26T04:51:12.104Z,-0.90
2023-02-26T04:56:15.167Z,-0.90
2023-02-26T05:01:17.797Z,-0.90
2023-02-26T05:06:20.256Z,-0.90
2023-02-26T05:11:23.438Z,-0.90
2023-02-26T05:16:26.199Z,-0.80
2023-02-26T05:21:28.826Z,-0.70
2023-02-26T05:26:31.844Z,-0.60
2023-02-26T05:31:34.331Z,-0.50
2023-02-26T05:36:36.876Z,-0.50
2023-02-26T05:41:39.185Z,-0.50
2023-02-26T05:46:41.521Z,-0.40
2023-02-26T05:51:43.858Z,-0.30
2023-02-26T05:56:46.210Z,-0.30
2023-02-26T06:01:48.744Z,-0.20
2023-02-26T06:06:51.048Z,-0.20
2023-02-26T06:11:53.402Z,-0.10
2023-02-26T06:16:55.727Z,0.00
2023-02-26T06:21:58.465Z,0.10
2023-02-26T06:27:00.800Z,0.10
2023-02-26T06:32:04.041Z,0.20
2023-02-26T06:37:06.872Z,0.20
2023-02-26T06:42:09.249Z,0.20
2023-02-26T06:47:11.603Z,0.40
2023-02-26T06:52:13.962Z,0.60
2023-02-26T06:57:16.375Z,0.90
2023-02-26T07:02:22.004Z,1.20
2023-02-26T07:07:24.431Z,1.10
2023-02-26T07:12:26.947Z,1.10
2023-02-26T07:17:29.339Z,1.10
2023-02-26T07:22:32.083Z,1.20
2023-02-26T07:27:34.493Z,1.40
2023-02-26T07:32:36.986Z,1.60
2023-02-26T07:37:39.334Z,1.80
2023-02-26T07:42:41.968Z,1.50
2023-02-26T07:47:44.629Z,1.50
2023-02-26T07:52:47.564Z,1.40
2023-02-26T07:57:50.299Z,1.60
2023-02-26T08:02:52.774Z,1.60
2023-02-26T08:07:55.183Z,1.70
2023-02-26T08:12:58.034Z,1.60
2023-02-26T08:18:00.401Z,1.40
2023-02-26T08:23:03.026Z,1.50
2023-02-26T08:28:05.540Z,1.70
2023-02-26T08:33:08.328Z,1.90
2023-02-26T08:38:10.742Z,2.00
2023-02-26T08:43:13.127Z,2.20
2023-02-26T08:48:15.720Z,2.30
2023-02-26T08:53:18.133Z,2.90
2023-02-26T08:58:21.406Z,2.50
2023-02-26T09:03:23.724Z,2.30
2023-02-26T09:08:26.239Z,2.50
2023-02-26T09:13:29.932Z,2.60
2023-02-26T09:18:32.224Z,2.50
2023-02-26T09:23:34.596Z,2.50
2023-02-26T09:28:36.991Z,2.60
2023-02-26T09:33:39.489Z,2.70
2023-02-26T09:38:43.374Z,2.80
2023-02-26T09:44:03.879Z,2.90
2023-02-26T09:49:26.480Z,3.00
2023-02-26T09:54:34.044Z,3.10
2023-02-26T09:59:36.575Z,3.10
2023-02-26T10:05:00.728Z,3.10
2023-02-26T10:10:08.705Z,3.20
2023-02-26T10:15:24.106Z,3.40
2023-02-26T10:20:44.875Z,3.50
2023-02-26T10:25:58.230Z,3.60
2023-02-26T10:31:13.493Z,3.50
2023-02-26T10:36:31.970Z,3.70
2023-02-26T10:41:37.270Z,3.70
2023-02-26T10:46:56.204Z,3.70
2023-02-26T10:52:09.929Z,3.70
2023-02-26T10:57:21.724Z,3.70
2023-02-26T11:02:42.350Z,4.00
2023-02-26T11:07:48.220Z,3.80
2023-02-26T11:12:51.700Z,3.60
2023-02-26T11:17:57.185Z,3.50
2023-02-26T11:23:01.514Z,3.50
2023-02-26T11:28:30.630Z,3.80
2023-02-26T11:33:44.223Z,3.90
2023-02-26T11:38:52.838Z,3.70
2023-02-26T11:44:13.858Z,3.90
2023-02-26T11:49:20.636Z,4.30
2023-02-26T11:54:27.420Z,4.70
2023-02-26T11:59:32.761Z,5.10
2023-02-26T12:04:35.133Z,5.00
2023-02-26T12:09:37.501Z,4.70
2023-02-26T12:14:57.855Z,4.30
2023-02-26T12:20:24.800Z,3.80
2023-02-26T12:25:45.227Z,3.70
2023-02-26T12:30:47.516Z,3.80
2023-02-26T12:36:09.308Z,3.90
2023-02-26T12:41:25.788Z,3.80
2023-02-26T12:46:51.131Z,3.70
2023-02-26T12:52:18.393Z,3.50
2023-02-26T12:57:23.829Z,3.60
2023-02-26T13:03:07.912Z,3.60
2023-02-26T13:08:21.870Z,3.60
2023-02-26T13:13:37.278Z,3.70
2023-02-26T13:19:06.104Z,3.70
2023-02-26T13:24:14.300Z,3.50
2023-02-26T13:29:44.306Z,3.60
2023-02-26T13:35:01.671Z,3.70
2023-02-26T13:40:41.561Z,3.90
2023-02-26T13:46:22.188Z,3.90
2023-02-26T13:51:46.224Z,4.10
2023-02-26T13:56:55.421Z,4.10
2023-02-26T14:02:18.028Z,3.80
2023-02-26T14:07:53.835Z,3.50
2023-02-26T14:13:18.459Z,3.40
2023-02-26T14:18:36.231Z,3.30
2023-02-26T14:23:40.512Z,3.40
2023-02-26T14:28:46.108Z,3.50
2023-02-26T14:34:19.122Z,3.60
2023-02-26T14:39:34.691Z,3.60
2023-02-26T14:45:06.300Z,3.60
2023-02-26T14:50:11.191Z,3.50
2023-02-26T14:55:35.260Z,3.50
2023-02-26T15:00:52.781Z,3.40
2023-02-26T15:06:07.583Z,3.40
2023-02-26T15:11:46.079Z,3.30
2023-02-26T15:17:06.822Z,3.30
2023-02-26T15:22:30.503Z,3.20
2023-02-26T15:27:33.475Z,3.30
2023-02-26T15:32:38.327Z,3.30
2023-02-26T15:37:40.682Z,3.30
2023-02-26T15:42:45.387Z,3.20
2023-02-26T15:47:56.470Z,3.10
2023-02-26T15:53:02.456Z,3.00
2023-02-26T15:58:06.763Z,3.00
2023-02-26T16:03:11.148Z,2.90
2023-02-26T16:08:18.364Z,2.90
2023-02-26T16:13:38.044Z,2.70
2023-02-26T16:18:42.089Z,2.60
2023-02-26T16:23:48.754Z,2.50
2023-02-26T16:28:57.996Z,2.40
2023-02-26T16:34:04.983Z,2.30
2023-02-26T16:39:07.261Z,2.30
2023-02-26T16:44:31.402Z,2.30
2023-02-26T16:49:36.385Z,2.30
2023-02-26T16:54:42.277Z,2.30
2023-02-26T16:59:51.226Z,2.30
2023-02-26T17:05:14.776Z,2.30
2023-02-26T17:10:22.489Z,2.20
2023-02-26T17:15:32.145Z,2.10
2023-02-26T17:20:36.212Z,2.00
2023-02-26T17:25:42.011Z,1.90
2023-02-26T17:30:44.593Z,1.80
2023-02-26T17:35:48.098Z,1.80
2023-02-26T17:40:54.379Z,1.70
2023-02-26T17:45:56.837Z,1.60
2023-02-26T17:50:59.220Z,1.50
2023-02-26T17:56:01.588Z,1.40
2023-02-26T18:01:04.687Z,1.20
2023-02-26T18:06:07.562Z,1.10
2023-02-26T18:11:12.817Z,1.00
2023-02-26T18:16:20.965Z,0.90
2023-02-26T18:21:23.351Z,0.80
2023-02-26T18:26:27.831Z,0.60
2023-02-26T18:31:35.325Z,0.50
2023-02-26T18:36:39.650Z,0.40
2023-02-26T18:41:42.119Z,0.20
2023-02-26T18:46:45.002Z,0.20
2023-02-26T18:51:47.842Z,0.00
2023-02-26T18:56:50.367Z,0.00
2023-02-26T19:01:52.819Z,0.00
2023-02-26T19:06:55.232Z,-0.10
2023-02-26T19:11:57.892Z,0.00
2023-02-26T19:17:00.292Z,0.30
2023-02-26T19:22:02.722Z,0.20
2023-02-26T19:27:05.120Z,0.30
2023-02-26T19:32:09.024Z,0.40
2023-02-26T19:37:11.701Z,0.50
2023-02-26T19:42:14.583Z,0.60
2023-02-26T19:47:16.997Z,0.70
2023-02-26T19:52:19.476Z,0.70
2023-02-26T19:57:21.932Z,0.80
2023-02-26T20:02:24.264Z,0.80
2023-02-26T20:07:27.053Z,0.80
2023-02-26T20:12:30.404Z,0.80
2023-02-26T20:17:34.037Z,0.80
2023-02-26T20:22:36.580Z,0.90
2023-02-26T20:27:39.197Z,0.90
2023-02-26T20:32:42.007Z,0.90
2023-02-26T20:37:44.535Z,0.90
2023-02-26T20:42:46.912Z,0.90
2023-02-26T20:47:49.225Z,0.90
2023-02-26T20:52:51.522Z,0.90
2023-02-26T20:57:55.216Z,0.90
2023-02-26T21:02:57.712Z,0.90
2023-02-26T21:08:00.150Z,0.90
2023-02-26T21:13:02.754Z,0.90
2023-02-26T21:18:05.240Z,0.90
2023-02-26T21:23:07.679Z,0.80
2023-02-26T21:28:09.978Z,0.80
2023-02-26T21:33:13.831Z,0.90
2023-02-26T21:38:16.212Z,0.80
2023-02-26T21:43:18.522Z,0.80
2023-02-26T21:48:20.886Z,1.10
2023-02-26T21:53:23.839Z,0.90
2023-02-26T21:58:26.305Z,0.80
2023-02-26T22:03:28.739Z,0.80
2023-02-26T22:08:31.340Z,0.80
2023-02-26T22:13:33.787Z,1.10
2023-02-26T22:18:36.182Z,0.80
2023-02-26T22:23:38.475Z,0.80
2023-02-26T22:28:40.808Z,0.80
2023-02-26T22:33:43.424Z,0.80
2023-02-26T22:38:46.434Z,0.80
2023-02-26T22:43:49.352Z,0.70
2023-02-26T22:48:51.850Z,0.80
2023-02-26T22:53:54.124Z,0.80
2023-02-26T22:58:57.286Z,0.70
2023-02-26T23:03:59.823Z,0.70
2023-02-26T23:09:02.775Z,0.70
2023-02-26T23:14:05.209Z,0.60
2023-02-26T23:19:07.989Z,0.60
2023-02-26T23:24:10.650Z,0.60
2023-02-26T23:29:13.028Z,0.60
2023-02-26T23:34:15.708Z,0.60
2023-02-26T23:39:18.065Z,0.60
2023-02-26T23:44:20.404Z,0.60
2023-02-26T23:49:22.707Z,0.40
2023-02-26T23:54:25.056Z,0.20
2023-02-26T23:59:27.464Z,0.10
